• Join FlightAware (Why Join?)
  • Login
  • US Flag 
10:16PM EDT


 

Airport Tracker/Info


-or-


 

Live Flight TrackerFlight Track Log ✈ GJS6254 ✈ 21-Jun-2013 ✈ KLGA - KBTV

Flight Track Log - Related Links

Times and Time Zones

All times are in EDT time to prevent confusion due to time zone crossing. See the GJS6254 flight status page for this flight to view local times or setup timezone preferences in your user account.

Time Position Orientation Groundspeed Altitude Reporting Facility
EDT Latitude Longitude Course Direction KTS MPH feet Rate Location/Type
03:46PM 40.7333 -73.8000 37° Northeast 199 229 2,700  Level New York TRACON
03:47PM 40.8008 -73.7314 38° Northeast 203 234 6,300 2,400 Climbing Boston Center
03:48PM 40.8700 -73.6861 26° Northeast 231 266 9,000 2,460 Climbing Boston Center
03:49PM 40.9456 -73.6408 24° Northeast 264 304 11,300 2,220 Climbing Boston Center
03:50PM 41.0336 -73.5847 26° Northeast 324 373 13,500 2,220 Climbing Boston Center
03:51PM 41.3132 -73.4368 37° Northeast  Level FlightAware Approximate
03:51PM 41.1322 -73.5258 24° Northeast 351 404 15,800  Level Boston Center
03:52PM 41.2181 -73.4750 24° Northeast 362 417 17,500 1,560 Climbing Boston Center
03:53PM 41.3272 -73.4075 25° Northeast 376 433 19,000 1,500 Climbing Boston Center
03:54PM 41.4272 -73.3981 North 383 441 20,600 1,560 Climbing Boston Center
03:55PM 41.5356 -73.3914 North 388 447 22,200 1,320 Climbing Boston Center
03:56PM 41.6419 -73.3928 359° North 388 447 23,300 1,020 Climbing Boston Center
03:57PM 41.7586 -73.3892 North 398 458 24,300 1,080 Climbing Boston Center
03:58PM 41.8775 -73.3881 360° North 415 478 25,500 1,260 Climbing Boston Center
03:59PM 41.9983 -73.3817 North 426 490 26,900 660 Climbing Boston Center
04:00PM 42.1236 -73.3694 North 433 498 26,900  Level Boston Center
04:01PM 42.2425 -73.3628 North 439 505 27,000  Climbing Boston Center
04:02PM 42.3592 -73.3503 North 433 498 27,000 -60 Level Boston Center
04:03PM 42.4761 -73.3381 North 421 484 26,900  Descending Boston Center
04:04PM 42.5950 -73.3200 North 421 484 27,000  Climbing Boston Center
04:05PM 42.7117 -73.3244 358° North 421 484 27,000 -300 Level Boston Center
04:06PM 42.8325 -73.3150 North 421 484 26,500 -900 Descending Boston Center
04:07PM 42.9514 -73.3025 North 421 484 25,100 -900 Descending Boston Center
04:08PM 43.0869 -73.2900 North 416 479 24,600 -600 Descending Boston Center
04:09PM 43.1975 -73.2775 North 405 466 24,000 -300 Descending Boston Center
04:10PM 43.3103 -73.2675 North 405 466 24,000 -300 Level Boston Center
04:11PM 43.4311 -73.2519 North 397 457 23,400 -1,620 Descending Boston Center
04:12PM 43.5375 -73.2450 North 387 445 20,800 -2,580 Descending Boston Center
04:13PM 43.6375 -73.2347 North 376 433 18,300 -2,400 Descending Boston Center
04:14PM 43.7336 -73.2303 North 362 417 16,100 -2,400 Descending Boston Center
04:15PM 43.8294 -73.2200 North 348 400 13,600 -2,100 Descending Boston Center
04:16PM 43.9128 -73.2325 354° North 338 389 12,000 -960 Descending Boston Center
04:17PM 43.9958 -73.2481 352° North 319 367 11,700 -1,020 Descending Boston Center
04:19PM 44.0708 -73.2664 350° North 286 329 9,800 -1,980 Descending Boston Center
04:20PM 44.1811 -73.3028 347° North 270 311 7,000 -2,160 Descending Boston Center
04:21PM 44.2539 -73.3242 348° North 270 311 5,100 -1,500 Descending Boston Center
04:22PM 44.3244 -73.3483 346° North 265 305 4,000 -600 Descending Boston Center
04:23PM 44.3889 -73.3697 347° North 247 284 4,000 -360 Level Boston Center
04:24PM 44.4433 -73.3356 24° Northeast 209 241 3,300 -900 Descending Boston Center
04:25PM 44.4833 -73.2897 39° Northeast 193 222 2,200 -660 Descending Boston Center
04:26PM 44.5189 -73.2464 41° Northeast 175 201 2,000 -600 Descending Boston Center
04:27PM 44.5006 -73.1967 117° Southeast 121 139 1,100 -840 Descending Boston Center
04:28PM 44.4800 -73.1675 135° Southeast 120 138 400 -360 Descending Boston Center
04:29PM 44.4694 -73.1558 142° Southeast 87 100 400  Level Boston Center